createdAt,value
2022-11-28T00:01:23.980Z,99474.88
2022-11-28T00:03:51.915Z,99470.31
2022-11-28T00:06:19.751Z,99472.72
2022-11-28T00:08:47.416Z,99473.31
2022-11-28T00:11:15.352Z,99459.94
2022-11-28T00:13:43.094Z,99458.72
2022-11-28T00:16:10.814Z,99448.69
2022-11-28T00:18:38.471Z,99452.94
2022-11-28T00:21:06.079Z,99446.41
2022-11-28T00:23:34.567Z,99452.44
2022-11-28T00:26:02.423Z,99443.50
2022-11-28T00:28:30.044Z,99446.06
2022-11-28T00:30:57.626Z,99439.16
2022-11-28T00:33:25.224Z,99429.53
2022-11-28T00:35:54.500Z,99424.31
2022-11-28T00:38:22.092Z,99424.44
2022-11-28T00:40:49.655Z,99418.41
2022-11-28T00:43:17.263Z,99417.34
2022-11-28T00:45:44.885Z,99415.19
2022-11-28T00:48:13.484Z,99414.97
2022-11-28T00:50:41.068Z,99420.69
2022-11-28T00:53:08.618Z,99426.22
2022-11-28T00:55:36.164Z,99423.47
2022-11-28T00:58:04.170Z,99415.25
2022-11-28T01:00:32.234Z,99415.72
2022-11-28T01:02:59.802Z,99400.28
2022-11-28T01:05:27.424Z,99409.56
2022-11-28T01:07:55.339Z,99404.47
2022-11-28T01:10:22.988Z,99410.13
2022-11-28T01:12:52.444Z,99396.41
2022-11-28T01:15:20.014Z,99396.75
2022-11-28T01:17:47.579Z,99399.59
2022-11-28T01:20:15.211Z,99397.22
2022-11-28T01:22:42.789Z,99397.41
2022-11-28T01:25:11.570Z,99401.16
2022-11-28T01:27:39.152Z,99391.75
2022-11-28T01:30:07.042Z,99392.00
2022-11-28T01:32:34.660Z,99376.31
2022-11-28T01:35:02.283Z,99381.00
2022-11-28T01:37:31.640Z,99389.06
2022-11-28T01:39:59.208Z,99377.72
2022-11-28T01:42:26.900Z,99383.16
2022-11-28T01:44:54.465Z,99372.56
2022-11-28T01:47:22.005Z,99374.38
2022-11-28T01:49:49.615Z,99379.56
2022-11-28T01:52:17.467Z,99381.97
2022-11-28T01:54:45.017Z,99372.09
2022-11-28T01:57:12.632Z,99376.22
2022-11-28T01:59:40.199Z,99379.47
2022-11-28T02:02:08.162Z,99379.22
2022-11-28T02:04:35.771Z,99375.50
2022-11-28T02:07:03.364Z,99369.03
2022-11-28T02:09:30.927Z,99365.06
2022-11-28T02:11:58.502Z,99356.78
2022-11-28T02:14:26.293Z,99362.56
2022-11-28T02:16:53.869Z,99355.97
2022-11-28T02:19:21.485Z,99361.00
2022-11-28T02:21:49.061Z,99367.16
2022-11-28T02:24:16.639Z,99353.81
2022-11-28T02:26:45.193Z,99345.59
2022-11-28T02:29:12.759Z,99348.75
2022-11-28T02:31:40.371Z,99336.94
2022-11-28T02:34:08.338Z,99342.03
2022-11-28T02:36:35.900Z,99339.13
2022-11-28T02:39:04.163Z,99334.53
2022-11-28T02:41:31.805Z,99323.09
2022-11-28T02:44:03.751Z,99314.31
2022-11-28T02:46:31.943Z,99316.94
2022-11-28T02:48:59.669Z,99319.59
2022-11-28T02:51:28.541Z,99313.44
2022-11-28T02:53:56.097Z,99305.50
2022-11-28T02:56:24.008Z,99303.69
2022-11-28T02:58:51.926Z,99294.06
2022-11-28T03:01:19.615Z,99295.03
2022-11-28T03:03:47.721Z,99302.97
2022-11-28T03:06:16.057Z,99309.25
2022-11-28T03:08:43.623Z,99305.63
2022-11-28T03:11:11.223Z,99298.66
2022-11-28T03:13:38.774Z,99292.25
2022-11-28T03:16:06.795Z,99278.16
2022-11-28T03:18:34.454Z,99282.38
2022-11-28T03:21:02.037Z,99293.69
2022-11-28T03:23:29.625Z,99297.22
2022-11-28T03:25:57.345Z,99289.97
2022-11-28T03:28:25.250Z,99290.69
2022-11-28T03:30:52.806Z,99304.78
2022-11-28T03:33:21.426Z,99297.56
2022-11-28T03:35:48.999Z,99290.47
2022-11-28T03:38:16.587Z,99289.50
2022-11-28T03:40:47.785Z,99276.25
2022-11-28T03:43:15.433Z,99283.22
2022-11-28T03:45:43.011Z,99285.88
2022-11-28T03:48:10.707Z,99282.25
2022-11-28T03:50:38.267Z,99283.94
2022-11-28T03:53:06.216Z,99282.00
2022-11-28T03:55:33.899Z,99277.44
2022-11-28T03:58:01.576Z,99287.06
2022-11-28T04:00:29.135Z,99284.41
2022-11-28T04:02:57.198Z,99290.44
2022-11-28T04:05:25.144Z,99291.16
2022-11-28T04:07:52.774Z,99291.88
2022-11-28T04:10:20.480Z,99290.91
2022-11-28T04:12:48.075Z,99297.75
2022-11-28T04:15:15.666Z,99301.38
2022-11-28T04:17:43.615Z,99304.88
2022-11-28T04:20:11.207Z,99300.56
2022-11-28T04:22:38.800Z,99303.06
2022-11-28T04:25:06.830Z,99299.69
2022-11-28T04:27:34.412Z,99311.88
2022-11-28T04:30:02.347Z,99297.91
2022-11-28T04:32:29.956Z,99305.59
2022-11-28T04:34:57.547Z,99303.66
2022-11-28T04:37:25.154Z,99293.78
2022-11-28T04:39:52.755Z,99276.06
2022-11-28T04:42:21.895Z,99279.50
2022-11-28T04:44:49.537Z,99278.38
2022-11-28T04:47:17.303Z,99279.22
2022-11-28T04:49:44.891Z,99280.91
2022-11-28T04:52:12.481Z,99286.22
2022-11-28T04:54:41.057Z,99289.72
2022-11-28T04:57:08.995Z,99293.09
2022-11-28T04:59:36.556Z,99299.38
2022-11-28T05:02:04.228Z,99301.31
2022-11-28T05:04:31.831Z,99298.66
2022-11-28T05:07:00.205Z,99290.81
2022-11-28T05:09:28.136Z,99297.91
2022-11-28T05:11:55.706Z,99304.19
2022-11-28T05:14:23.487Z,99298.88
2022-11-28T05:16:51.159Z,99298.66
2022-11-28T05:19:20.114Z,99294.06
2022-11-28T05:21:47.748Z,99300.06
2022-11-28T05:24:15.380Z,99284.16
2022-11-28T05:26:43.422Z,99283.44
2022-11-28T05:29:11.089Z,99278.16
2022-11-28T05:31:42.320Z,99263.81
2022-11-28T05:34:09.968Z,99258.50
2022-11-28T05:36:37.556Z,99263.81
2022-11-28T05:39:05.237Z,99286.56
2022-11-28T05:41:32.847Z,99295.25
2022-11-28T05:44:00.768Z,99299.59
2022-11-28T05:46:28.398Z,99291.63
2022-11-28T05:48:55.976Z,99295.09
2022-11-28T05:51:23.576Z,99295.25
2022-11-28T05:53:51.485Z,99295.97
2022-11-28T05:56:19.401Z,99293.19
2022-11-28T05:58:47.035Z,99288.72
2022-11-28T06:01:14.687Z,99296.66
2022-11-28T06:03:42.324Z,99289.44
2022-11-28T06:06:09.910Z,99290.28
2022-11-28T06:08:38.919Z,99290.28
2022-11-28T06:11:06.696Z,99280.53
2022-11-28T06:13:34.305Z,99271.72
2022-11-28T06:16:02.077Z,99277.13
2022-11-28T06:18:29.748Z,99285.09
2022-11-28T06:20:58.320Z,99286.22
2022-11-28T06:23:26.007Z,99298.63
2022-11-28T06:25:53.631Z,99298.88
2022-11-28T06:28:21.250Z,99302.63
2022-11-28T06:30:48.939Z,99295.84
2022-11-28T06:33:17.099Z,99291.53
2022-11-28T06:35:45.007Z,99298.88
2022-11-28T06:38:14.368Z,99294.53
2022-11-28T06:40:42.247Z,99288.28
2022-11-28T06:43:09.842Z,99291.63
2022-11-28T06:45:38.970Z,99280.09
2022-11-28T06:48:06.594Z,99290.56
2022-11-28T06:50:34.226Z,99286.31
2022-11-28T06:53:01.993Z,99291.88
2022-11-28T06:55:29.622Z,99285.09
2022-11-28T06:58:00.739Z,99278.00
2022-11-28T07:00:28.533Z,99277.88
2022-11-28T07:02:58.367Z,99280.53
2022-11-28T07:05:27.870Z,99285.84
2022-11-28T07:07:55.701Z,99275.97
2022-11-28T07:10:25.163Z,99286.31
2022-11-28T07:12:53.163Z,99286.09
2022-11-28T07:15:20.867Z,99295.75
2022-11-28T07:17:48.523Z,99295.75
2022-11-28T07:20:16.435Z,99292.13
2022-11-28T07:22:47.546Z,99287.78
2022-11-28T07:25:16.193Z,99288.50
2022-11-28T07:27:43.829Z,99294.75
2022-11-28T07:30:11.589Z,99296.44
2022-11-28T07:32:39.261Z,99303.31
2022-11-28T07:35:09.122Z,99303.31
2022-11-28T07:37:36.874Z,99302.34
2022-11-28T07:40:04.556Z,99301.38
2022-11-28T07:42:32.496Z,99306.56
2022-11-28T07:45:00.224Z,99317.06
2022-11-28T07:47:30.012Z,99336.34
2022-11-28T07:49:57.654Z,99338.88
2022-11-28T07:52:25.353Z,99339.72
2022-11-28T07:54:53.021Z,99335.25
2022-11-28T07:57:20.678Z,99335.13
2022-11-28T07:59:48.781Z,99324.50
2022-11-28T08:02:16.491Z,99323.56
2022-11-28T08:04:50.401Z,99324.38
2022-11-28T08:07:19.922Z,99326.06
2022-11-28T08:09:47.851Z,99328.88
2022-11-28T08:12:17.079Z,99319.19
2022-11-28T08:14:45.237Z,99319.56
2022-11-28T08:17:13.085Z,99314.53
2022-11-28T08:19:40.773Z,99313.06
2022-11-28T08:22:08.621Z,99327.31
2022-11-28T08:24:36.665Z,99323.81
2022-11-28T08:27:04.684Z,99327.31
2022-11-28T08:29:32.577Z,99322.84
2022-11-28T08:32:00.417Z,99322.84
2022-11-28T08:34:28.125Z,99323.69
2022-11-28T08:36:57.748Z,99323.69
2022-11-28T08:39:25.694Z,99319.25
2022-11-28T08:41:53.485Z,99308.63
2022-11-28T08:44:21.334Z,99310.41
2022-11-28T08:46:49.085Z,99322.75
2022-11-28T08:49:17.283Z,99318.38
2022-11-28T08:51:45.104Z,99311.16
2022-11-28T08:54:12.819Z,99318.16
2022-11-28T08:56:40.660Z,99321.50
2022-11-28T08:59:08.604Z,99328.50
2022-11-28T09:01:37.396Z,99320.44
2022-11-28T09:04:05.229Z,99315.94
2022-11-28T09:06:33.268Z,99324.88
2022-11-28T09:09:02.196Z,99324.44
2022-11-28T09:11:29.953Z,99324.06
2022-11-28T09:13:58.184Z,99331.41
2022-11-28T09:16:25.943Z,99324.56
2022-11-28T09:18:53.977Z,99323.78
2022-11-28T09:21:22.069Z,99317.06
2022-11-28T09:23:49.825Z,99321.50
2022-11-28T09:26:19.072Z,99326.59
2022-11-28T09:28:46.875Z,99329.94
2022-11-28T09:31:15.005Z,99336.72
2022-11-28T09:33:42.952Z,99336.22
2022-11-28T09:36:10.773Z,99334.88
2022-11-28T09:38:40.451Z,99336.34
2022-11-28T09:41:08.213Z,99334.19
2022-11-28T09:43:36.437Z,99333.66
2022-11-28T09:46:04.429Z,99329.69
2022-11-28T09:48:32.222Z,99340.75
2022-11-28T09:51:01.676Z,99340.38
2022-11-28T09:53:29.838Z,99333.00
2022-11-28T09:55:57.807Z,99338.09
2022-11-28T09:58:25.710Z,99331.69
2022-11-28T10:00:55.497Z,99330.72
2022-11-28T10:03:25.936Z,99337.13
2022-11-28T10:05:53.980Z,99338.31
2022-11-28T10:08:21.782Z,99350.75
2022-11-28T10:10:50.664Z,99340.00
2022-11-28T10:13:18.631Z,99338.78
2022-11-28T10:15:46.324Z,99335.75
2022-11-28T10:18:14.188Z,99334.41
2022-11-28T10:20:42.120Z,99333.78
2022-11-28T10:23:10.128Z,99341.09
2022-11-28T10:25:38.112Z,99333.50
2022-11-28T10:28:06.738Z,99329.47
2022-11-28T10:30:35.269Z,99332.34
2022-11-28T10:33:03.113Z,99335.47
2022-11-28T10:35:31.218Z,99328.06
2022-11-28T10:37:59.138Z,99340.00
2022-11-28T10:40:29.224Z,99332.63
2022-11-28T10:42:57.251Z,99342.97
2022-11-28T10:45:25.203Z,99340.06
2022-11-28T10:47:53.138Z,99336.44
2022-11-28T10:50:21.204Z,99343.56
2022-11-28T10:52:50.090Z,99340.19
2022-11-28T10:55:17.998Z,99338.16
2022-11-28T10:57:46.197Z,99344.13
2022-11-28T11:00:14.345Z,99344.66
2022-11-28T11:02:42.343Z,99348.53
2022-11-28T11:05:12.431Z,99345.41
2022-11-28T11:07:40.332Z,99344.72
2022-11-28T11:10:08.342Z,99342.16
2022-11-28T11:12:36.323Z,99342.28
2022-11-28T11:15:04.169Z,99342.28
2022-11-28T11:17:36.196Z,99342.44
2022-11-28T11:20:04.940Z,99345.22
2022-11-28T11:22:33.109Z,99345.22
2022-11-28T11:25:01.096Z,99337.25
2022-11-28T11:27:29.154Z,99348.56
2022-11-28T11:29:57.459Z,99351.13
2022-11-28T11:32:25.438Z,99344.94
2022-11-28T11:34:53.336Z,99345.81
2022-11-28T11:37:21.158Z,99340.50
2022-11-28T11:39:49.347Z,99345.53
2022-11-28T11:42:20.327Z,99340.94
2022-11-28T11:44:48.265Z,99345.03
2022-11-28T11:47:16.213Z,99345.75
2022-11-28T11:49:44.685Z,99346.47
2022-11-28T11:52:13.084Z,99344.66
2022-11-28T11:54:42.853Z,99346.22
2022-11-28T11:57:31.929Z,99348.75
2022-11-28T11:59:58.712Z,99346.78
2022-11-28T12:02:27.317Z,99349.19
2022-11-28T12:04:56.872Z,99348.34
2022-11-28T12:07:24.863Z,99345.94
2022-11-28T12:09:54.673Z,99346.09
2022-11-28T12:12:22.773Z,99341.00
2022-11-28T12:14:50.644Z,99344.06
2022-11-28T12:17:47.255Z,99339.13
2022-11-28T12:20:09.183Z,99347.59
2022-11-28T12:22:37.605Z,99340.88
2022-11-28T12:25:05.683Z,99341.84
2022-11-28T12:27:35.364Z,99346.41
2022-11-28T12:30:03.445Z,99338.44
2022-11-28T12:32:31.361Z,99334.81
2022-11-28T12:34:59.284Z,99340.88
2022-11-28T12:37:42.035Z,99344.13
2022-11-28T12:40:10.380Z,99345.91
2022-11-28T12:42:38.832Z,99345.09
2022-11-28T12:45:06.684Z,99346.19
2022-11-28T12:47:34.654Z,99342.78
2022-11-28T12:50:02.710Z,99349.22
2022-11-28T12:52:32.499Z,99350.19
2022-11-28T12:55:00.333Z,99338.84
2022-11-28T12:57:28.459Z,99344.53
2022-11-28T12:59:56.294Z,99345.50
2022-11-28T13:02:24.427Z,99346.59
2022-11-28T13:04:53.349Z,99344.06
2022-11-28T13:07:21.276Z,99349.50
2022-11-28T13:09:49.081Z,99339.00
2022-11-28T13:12:17.215Z,99343.59
2022-11-28T13:14:45.180Z,99351.56
2022-11-28T13:17:15.147Z,99350.88
2022-11-28T13:19:43.197Z,99340.25
2022-11-28T13:22:11.095Z,99344.59
2022-11-28T13:24:39.009Z,99348.06
2022-11-28T13:27:07.446Z,99344.59
2022-11-28T13:29:35.676Z,99346.25
2022-11-28T13:32:03.542Z,99341.78
2022-11-28T13:34:31.704Z,99349.63
2022-11-28T13:39:49.903Z,99337.44
2022-11-28T13:45:07.654Z,99345.28
2022-11-28T13:47:35.968Z,99347.09
2022-11-28T13:50:05.468Z,99351.56
2022-11-28T13:52:34.220Z,99345.56
2022-11-28T13:55:01.962Z,99351.81
2022-11-28T13:57:29.851Z,99349.16
2022-11-28T13:59:57.917Z,99345.66
2022-11-28T14:02:26.892Z,99348.44
2022-11-28T14:04:54.795Z,99347.63
2022-11-28T14:07:22.908Z,99345.78
2022-11-28T14:09:52.245Z,99338.78
2022-11-28T14:12:20.230Z,99345.78
2022-11-28T14:14:49.370Z,99344.81
2022-11-28T14:17:17.135Z,99350.28
2022-11-28T14:19:45.113Z,99344.09
2022-11-28T14:22:13.117Z,99351.22
2022-11-28T14:24:41.056Z,99360.88
2022-11-28T14:27:10.151Z,99361.00
2022-11-28T14:29:38.481Z,99361.00
2022-11-28T14:32:28.987Z,99371.63
2022-11-28T14:34:54.433Z,99374.38
2022-11-28T14:37:22.831Z,99374.66
2022-11-28T14:39:50.844Z,99364.16
2022-11-28T14:42:44.086Z,99370.53
2022-11-28T14:45:08.517Z,99370.53
2022-11-28T14:47:43.256Z,99376.81
2022-11-28T14:50:12.448Z,99376.94
2022-11-28T14:52:40.915Z,99376.94
2022-11-28T14:55:09.404Z,99382.25
2022-11-28T14:57:37.810Z,99382.50
2022-11-28T15:00:05.937Z,99388.78
2022-11-28T15:02:34.199Z,99385.41
2022-11-28T15:05:02.132Z,99387.22
2022-11-28T15:07:30.071Z,99389.97
2022-11-28T15:10:02.702Z,99382.28
2022-11-28T15:12:33.943Z,99396.50
2022-11-28T15:15:01.873Z,99391.19
2022-11-28T15:17:31.011Z,99390.34
2022-11-28T15:19:59.667Z,99398.31
2022-11-28T15:22:27.793Z,99393.97
2022-11-28T15:24:56.309Z,99396.72
2022-11-28T15:27:24.242Z,99391.44
2022-11-28T15:29:52.340Z,99394.06
2022-11-28T15:32:23.426Z,99390.50
2022-11-28T15:34:51.260Z,99394.94
2022-11-28T15:37:19.837Z,99394.94
2022-11-28T15:39:47.774Z,99396.72
2022-11-28T15:42:15.771Z,99400.25
2022-11-28T15:44:45.665Z,99410.97
2022-11-28T15:47:13.645Z,99410.16
2022-11-28T15:49:43.877Z,99411.81
2022-11-28T15:52:11.782Z,99410.00
2022-11-28T15:54:41.525Z,99412.53
2022-11-28T15:57:09.655Z,99405.44
2022-11-28T15:59:37.693Z,99409.78
2022-11-28T16:02:05.487Z,99412.44
2022-11-28T16:04:33.390Z,99411.47
2022-11-28T16:07:01.570Z,99410.59
2022-11-28T16:09:30.632Z,99420.28
2022-11-28T16:11:58.569Z,99416.75
2022-11-28T16:14:27.032Z,99416.66
2022-11-28T16:16:55.336Z,99418.44
2022-11-28T16:19:23.333Z,99421.09
2022-11-28T16:21:52.280Z,99419.31
2022-11-28T16:24:20.165Z,99417.47
2022-11-28T16:26:48.617Z,99424.47
2022-11-28T16:29:16.663Z,99418.34
2022-11-28T16:31:44.637Z,99426.41
2022-11-28T16:34:13.252Z,99427.25
2022-11-28T16:36:41.368Z,99418.44
2022-11-28T16:39:10.104Z,99424.59
2022-11-28T16:41:38.131Z,99425.44
2022-11-28T16:44:06.628Z,99428.09
2022-11-28T16:46:36.048Z,99428.09
2022-11-28T16:49:05.397Z,99433.41
2022-11-28T16:51:34.172Z,99429.06
2022-11-28T16:54:02.071Z,99438.72
2022-11-28T16:56:30.072Z,99438.72
2022-11-28T16:58:58.604Z,99437.88
2022-11-28T17:01:26.817Z,99439.56
2022-11-28T17:03:56.100Z,99438.59
2022-11-28T17:06:23.950Z,99445.69
2022-11-28T17:08:51.941Z,99441.25
2022-11-28T17:11:21.277Z,99441.25
2022-11-28T17:13:49.136Z,99452.69
2022-11-28T17:16:17.807Z,99449.09
2022-11-28T17:18:45.757Z,99444.72
2022-11-28T17:21:13.650Z,99442.06
2022-11-28T17:23:45.287Z,99444.72
2022-11-28T17:26:13.124Z,99446.56
2022-11-28T17:28:41.756Z,99451.00
2022-11-28T17:31:09.709Z,99446.66
2022-11-28T17:33:41.690Z,99442.06
2022-11-28T17:36:12.596Z,99449.09
2022-11-28T17:38:40.421Z,99447.97
2022-11-28T17:41:10.338Z,99450.53
2022-11-28T17:43:39.355Z,99450.31
2022-11-28T17:46:07.444Z,99458.13
2022-11-28T17:48:36.363Z,99453.66
2022-11-28T17:51:04.673Z,99458.00
2022-11-28T17:53:33.160Z,99458.88
2022-11-28T17:56:01.021Z,99457.16
2022-11-28T17:58:29.213Z,99463.31
2022-11-28T18:01:00.590Z,99458.13
2022-11-28T18:03:28.998Z,99462.59
2022-11-28T18:05:57.519Z,99461.84
2022-11-28T18:08:25.373Z,99463.69
2022-11-28T18:10:53.238Z,99462.97
2022-11-28T18:13:22.583Z,99461.38
2022-11-28T18:15:50.384Z,99457.06
2022-11-28T18:18:18.580Z,99461.63
2022-11-28T18:20:46.639Z,99459.09
2022-11-28T18:23:14.476Z,99467.19
2022-11-28T18:25:43.541Z,99470.81
2022-11-28T18:28:17.296Z,99470.81
2022-11-28T18:30:47.098Z,99475.25
2022-11-28T18:33:15.026Z,99478.88
2022-11-28T18:35:47.162Z,99477.06
2022-11-28T18:38:15.082Z,99480.56
2022-11-28T18:40:42.891Z,99479.59
2022-11-28T18:43:11.066Z,99479.47
2022-11-28T18:45:39.099Z,99477.53
2022-11-28T18:48:08.083Z,99480.94
2022-11-28T18:50:35.899Z,99471.16
2022-11-28T18:53:03.877Z,99481.53
2022-11-28T18:55:32.051Z,99477.06
2022-11-28T18:58:00.117Z,99486.72
2022-11-28T19:00:28.092Z,99484.91
2022-11-28T19:02:55.987Z,99498.06
2022-11-28T19:05:23.938Z,99487.44
2022-11-28T19:07:51.863Z,99497.09
2022-11-28T19:10:20.549Z,99493.47
2022-11-28T19:12:48.386Z,99502.16
2022-11-28T19:15:16.388Z,99502.03
2022-11-28T19:17:44.397Z,99498.53
2022-11-28T19:20:12.846Z,99513.47
2022-11-28T19:22:40.763Z,99504.44
2022-11-28T19:25:08.677Z,99506.25
2022-11-28T19:27:36.623Z,99502.63
2022-11-28T19:30:04.623Z,99504.31
2022-11-28T19:32:32.762Z,99505.16
2022-11-28T19:35:00.638Z,99502.38
2022-11-28T19:37:28.837Z,99513.88
2022-11-28T19:40:02.172Z,99517.22
2022-11-28T19:42:30.621Z,99507.47
2022-11-28T19:44:59.065Z,99509.16
2022-11-28T19:47:26.884Z,99508.19
2022-11-28T19:49:54.986Z,99509.75
2022-11-28T19:52:22.856Z,99511.44
2022-11-28T19:54:51.188Z,99511.31
2022-11-28T19:57:21.353Z,99515.53
2022-11-28T19:59:49.186Z,99512.03
2022-11-28T20:02:17.884Z,99512.75
2022-11-28T20:04:45.927Z,99515.31
2022-11-28T20:07:14.132Z,99517.81
2022-11-28T20:09:43.052Z,99522.19
2022-11-28T20:12:11.596Z,99530.16
2022-11-28T20:14:39.470Z,99527.50
2022-11-28T20:17:08.350Z,99528.31
2022-11-28T20:19:36.232Z,99533.63
2022-11-28T20:22:04.867Z,99537.16
2022-11-28T20:24:32.886Z,99536.41
2022-11-28T20:27:00.914Z,99540.78
2022-11-28T20:29:28.839Z,99532.81
2022-11-28T20:31:57.494Z,99537.16
2022-11-28T20:34:26.434Z,99541.47
2022-11-28T20:36:54.375Z,99545.94
2022-11-28T20:39:22.449Z,99539.81
2022-11-28T20:41:50.565Z,99535.31
2022-11-28T20:44:19.114Z,99538.94
2022-11-28T20:46:50.302Z,99538.13
2022-11-28T20:49:18.284Z,99547.16
2022-11-28T20:51:47.726Z,99552.47
2022-11-28T20:54:15.577Z,99549.81
2022-11-28T20:57:19.823Z,99543.53
2022-11-28T20:59:33.353Z,99543.44
2022-11-28T21:02:03.279Z,99550.44
2022-11-28T21:04:31.157Z,99545.13
2022-11-28T21:06:58.935Z,99552.09
2022-11-28T21:09:26.991Z,99546.78
2022-11-28T21:11:58.172Z,99550.16
2022-11-28T21:14:27.871Z,99543.16
2022-11-28T21:16:55.916Z,99548.38
2022-11-28T21:19:23.893Z,99544.84
2022-11-28T21:21:52.130Z,99550.88
2022-11-28T21:24:20.439Z,99555.22
2022-11-28T21:26:53.480Z,99550.78
2022-11-28T21:29:22.562Z,99557.66
2022-11-28T21:31:50.445Z,99555.81
2022-11-28T21:34:19.726Z,99561.03
2022-11-28T21:36:48.136Z,99554.03
2022-11-28T21:39:17.071Z,99554.88
2022-11-28T21:41:44.948Z,99554.75
2022-11-28T21:44:12.816Z,99556.44
2022-11-28T21:46:40.747Z,99560.81
2022-11-28T21:49:09.235Z,99564.28
2022-11-28T21:51:37.147Z,99563.44
2022-11-28T21:54:04.879Z,99561.63
2022-11-28T21:56:32.778Z,99558.00
2022-11-28T21:59:00.775Z,99556.31
2022-11-28T22:01:29.355Z,99565.13
2022-11-28T22:04:02.665Z,99565.00
2022-11-28T22:06:31.057Z,99566.81
2022-11-28T22:08:59.431Z,99568.50
2022-11-28T22:11:27.877Z,99561.25
2022-11-28T22:13:56.168Z,99563.09
2022-11-28T22:16:24.053Z,99564.78
2022-11-28T22:18:52.000Z,99569.94
2022-11-28T22:21:50.458Z,99558.50
2022-11-28T22:24:08.359Z,99564.63
2022-11-28T22:26:36.426Z,99563.69
2022-11-28T22:29:04.747Z,99572.47
2022-11-28T22:31:32.716Z,99569.81
2022-11-28T22:34:00.740Z,99571.66
2022-11-28T22:36:28.574Z,99572.47
2022-11-28T22:38:57.461Z,99573.44
2022-11-28T22:41:29.040Z,99584.19
2022-11-28T22:43:57.521Z,99583.38
2022-11-28T22:46:25.568Z,99582.50
2022-11-28T22:48:53.825Z,99585.16
2022-11-28T22:51:22.494Z,99584.19
2022-11-28T22:53:50.340Z,99586.84
2022-11-28T22:56:18.287Z,99583.22
2022-11-28T22:58:46.129Z,99582.28
2022-11-28T23:01:14.295Z,99583.97
2022-11-28T23:03:42.159Z,99584.78
2022-11-28T23:06:10.086Z,99582.13
2022-11-28T23:08:38.197Z,99589.28
2022-11-28T23:11:06.080Z,99590.09
2022-11-28T23:13:34.166Z,99580.34
2022-11-28T23:16:01.946Z,99591.78
2022-11-28T23:18:29.727Z,99585.53
2022-11-28T23:20:57.388Z,99592.66
2022-11-28T23:23:25.109Z,99589.03
2022-11-28T23:25:53.196Z,99589.03
2022-11-28T23:28:21.903Z,99596.03
2022-11-28T23:30:49.935Z,99596.75
2022-11-28T23:33:17.684Z,99596.63
2022-11-28T23:35:45.338Z,99597.59
2022-11-28T23:38:13.030Z,99595.66
2022-11-28T23:40:42.074Z,99595.53
2022-11-28T23:43:09.742Z,99596.41
2022-11-28T23:45:37.639Z,99594.69
2022-11-28T23:48:05.462Z,99589.38
2022-11-28T23:50:33.445Z,99594.69
2022-11-28T23:53:04.381Z,99591.09
2022-11-28T23:55:32.176Z,99594.69
2022-11-28T23:57:59.794Z,99590.22
